sensor_id;sensor_type;location;lat;lon;timestamp;P1;durP1;ratioP1;P2;durP2;ratioP2
8708;SDS011;4391;48.678;9.280;2023-12-20T00:00:20;2.50;;;0.80;;
8708;SDS011;4391;48.678;9.280;2023-12-20T00:02:47;2.80;;;1.00;;
8708;SDS011;4391;48.678;9.280;2023-12-20T00:05:14;2.97;;;1.00;;
8708;SDS011;4391;48.678;9.280;2023-12-20T00:07:41;2.90;;;0.90;;
8708;SDS011;4391;48.678;9.280;2023-12-20T00:10:09;3.38;;;1.20;;
8708;SDS011;4391;48.678;9.280;2023-12-20T00:12:38;2.85;;;0.80;;
8708;SDS011;4391;48.678;9.280;2023-12-20T00:15:06;3.03;;;0.93;;
8708;SDS011;4391;48.678;9.280;2023-12-20T00:17:33;3.72;;;1.08;;
8708;SDS011;4391;48.678;9.280;2023-12-20T00:20:00;2.80;;;1.05;;
8708;SDS011;4391;48.678;9.280;2023-12-20T00:22:26;4.03;;;1.10;;
8708;SDS011;4391;48.678;9.280;2023-12-20T00:24:53;3.13;;;1.35;;
8708;SDS011;4391;48.678;9.280;2023-12-20T00:27:21;2.90;;;1.00;;
8708;SDS011;4391;48.678;9.280;2023-12-20T00:29:49;2.97;;;0.80;;
8708;SDS011;4391;48.678;9.280;2023-12-20T00:32:16;3.25;;;1.10;;
8708;SDS011;4391;48.678;9.280;2023-12-20T00:34:43;7.55;;;1.10;;
8708;SDS011;4391;48.678;9.280;2023-12-20T00:37:10;3.70;;;1.20;;
8708;SDS011;4391;48.678;9.280;2023-12-20T00:39:37;3.20;;;0.90;;
8708;SDS011;4391;48.678;9.280;2023-12-20T00:42:04;3.78;;;1.10;;
8708;SDS011;4391;48.678;9.280;2023-12-20T00:44:32;3.15;;;1.20;;
8708;SDS011;4391;48.678;9.280;2023-12-20T00:46:59;3.63;;;1.42;;
8708;SDS011;4391;48.678;9.280;2023-12-20T00:49:26;3.28;;;1.20;;
8708;SDS011;4391;48.678;9.280;2023-12-20T00:51:53;2.40;;;0.80;;
8708;SDS011;4391;48.678;9.280;2023-12-20T00:54:19;2.97;;;1.05;;
8708;SDS011;4391;48.678;9.280;2023-12-20T00:56:46;2.97;;;1.00;;
8708;SDS011;4391;48.678;9.280;2023-12-20T00:59:13;3.55;;;1.23;;
8708;SDS011;4391;48.678;9.280;2023-12-20T01:01:42;2.63;;;1.05;;
8708;SDS011;4391;48.678;9.280;2023-12-20T01:04:09;2.60;;;0.90;;
8708;SDS011;4391;48.678;9.280;2023-12-20T01:06:38;2.72;;;0.95;;
8708;SDS011;4391;48.678;9.280;2023-12-20T01:09:05;2.33;;;0.82;;
8708;SDS011;4391;48.678;9.280;2023-12-20T01:11:32;2.28;;;0.73;;
8708;SDS011;4391;48.678;9.280;2023-12-20T01:13:58;2.80;;;0.90;;
8708;SDS011;4391;48.678;9.280;2023-12-20T01:16:25;3.73;;;0.80;;
8708;SDS011;4391;48.678;9.280;2023-12-20T01:18:53;2.78;;;0.80;;
8708;SDS011;4391;48.678;9.280;2023-12-20T01:21:20;2.42;;;0.70;;
8708;SDS011;4391;48.678;9.280;2023-12-20T01:23:47;3.15;;;1.00;;
8708;SDS011;4391;48.678;9.280;2023-12-20T01:26:14;1.75;;;0.60;;
8708;SDS011;4391;48.678;9.280;2023-12-20T01:28:41;2.63;;;0.70;;
8708;SDS011;4391;48.678;9.280;2023-12-20T01:31:08;2.47;;;0.80;;
8708;SDS011;4391;48.678;9.280;2023-12-20T01:33:35;2.13;;;0.70;;
8708;SDS011;4391;48.678;9.280;2023-12-20T01:36:04;2.22;;;0.73;;
8708;SDS011;4391;48.678;9.280;2023-12-20T01:38:31;2.15;;;0.60;;
8708;SDS011;4391;48.678;9.280;2023-12-20T01:40:58;1.83;;;0.63;;
8708;SDS011;4391;48.678;9.280;2023-12-20T01:43:25;2.33;;;0.70;;
8708;SDS011;4391;48.678;9.280;2023-12-20T01:45:52;1.73;;;0.65;;
8708;SDS011;4391;48.678;9.280;2023-12-20T01:48:19;2.67;;;0.68;;
8708;SDS011;4391;48.678;9.280;2023-12-20T01:50:46;2.83;;;0.90;;
8708;SDS011;4391;48.678;9.280;2023-12-20T01:53:15;3.07;;;0.70;;
8708;SDS011;4391;48.678;9.280;2023-12-20T01:55:43;2.75;;;0.70;;
8708;SDS011;4391;48.678;9.280;2023-12-20T01:58:11;2.03;;;0.65;;
8708;SDS011;4391;48.678;9.280;2023-12-20T02:00:39;2.28;;;0.60;;
8708;SDS011;4391;48.678;9.280;2023-12-20T02:03:06;4.38;;;0.80;;
8708;SDS011;4391;48.678;9.280;2023-12-20T02:05:34;2.43;;;0.70;;
8708;SDS011;4391;48.678;9.280;2023-12-20T02:08:02;1.20;;;0.50;;
8708;SDS011;4391;48.678;9.280;2023-12-20T02:10:30;1.92;;;0.60;;
8708;SDS011;4391;48.678;9.280;2023-12-20T02:12:57;1.75;;;0.50;;
8708;SDS011;4391;48.678;9.280;2023-12-20T02:15:24;3.47;;;0.90;;
8708;SDS011;4391;48.678;9.280;2023-12-20T02:17:51;2.20;;;0.70;;
8708;SDS011;4391;48.678;9.280;2023-12-20T02:20:18;1.67;;;0.50;;
8708;SDS011;4391;48.678;9.280;2023-12-20T02:22:46;3.13;;;0.82;;
8708;SDS011;4391;48.678;9.280;2023-12-20T02:25:13;1.30;;;0.40;;
8708;SDS011;4391;48.678;9.280;2023-12-20T02:27:40;2.58;;;0.57;;
8708;SDS011;4391;48.678;9.280;2023-12-20T02:30:08;1.10;;;0.50;;
8708;SDS011;4391;48.678;9.280;2023-12-20T02:32:36;2.08;;;0.60;;
8708;SDS011;4391;48.678;9.280;2023-12-20T02:35:03;1.90;;;0.80;;
8708;SDS011;4391;48.678;9.280;2023-12-20T02:37:30;2.17;;;0.60;;
8708;SDS011;4391;48.678;9.280;2023-12-20T02:39:58;1.85;;;0.68;;
8708;SDS011;4391;48.678;9.280;2023-12-20T02:42:25;1.73;;;0.50;;
8708;SDS011;4391;48.678;9.280;2023-12-20T02:44:52;1.92;;;0.40;;
8708;SDS011;4391;48.678;9.280;2023-12-20T02:47:20;4.05;;;0.80;;
8708;SDS011;4391;48.678;9.280;2023-12-20T02:49:47;3.70;;;0.60;;
8708;SDS011;4391;48.678;9.280;2023-12-20T02:52:14;2.03;;;0.90;;
8708;SDS011;4391;48.678;9.280;2023-12-20T02:54:41;1.13;;;0.40;;
8708;SDS011;4391;48.678;9.280;2023-12-20T02:57:09;1.30;;;0.50;;
8708;SDS011;4391;48.678;9.280;2023-12-20T02:59:36;1.65;;;0.50;;
8708;SDS011;4391;48.678;9.280;2023-12-20T03:02:03;1.10;;;0.30;;
8708;SDS011;4391;48.678;9.280;2023-12-20T03:04:29;5.15;;;0.80;;
8708;SDS011;4391;48.678;9.280;2023-12-20T03:06:56;0.70;;;0.30;;
8708;SDS011;4391;48.678;9.280;2023-12-20T03:09:23;1.42;;;0.40;;
8708;SDS011;4391;48.678;9.280;2023-12-20T03:11:50;1.55;;;0.50;;
8708;SDS011;4391;48.678;9.280;2023-12-20T03:14:18;1.60;;;0.40;;
8708;SDS011;4391;48.678;9.280;2023-12-20T03:16:46;1.98;;;0.40;;
8708;SDS011;4391;48.678;9.280;2023-12-20T03:19:13;1.37;;;0.30;;
8708;SDS011;4391;48.678;9.280;2023-12-20T03:21:41;1.58;;;0.40;;
8708;SDS011;4391;48.678;9.280;2023-12-20T03:24:07;1.17;;;0.50;;
8708;SDS011;4391;48.678;9.280;2023-12-20T03:26:34;1.90;;;0.40;;
8708;SDS011;4391;48.678;9.280;2023-12-20T03:29:01;0.95;;;0.47;;
8708;SDS011;4391;48.678;9.280;2023-12-20T03:31:29;1.00;;;0.40;;
8708;SDS011;4391;48.678;9.280;2023-12-20T03:33:58;0.80;;;0.30;;
8708;SDS011;4391;48.678;9.280;2023-12-20T03:36:25;1.25;;;0.50;;
8708;SDS011;4391;48.678;9.280;2023-12-20T03:38:52;1.05;;;0.32;;
8708;SDS011;4391;48.678;9.280;2023-12-20T03:41:19;0.88;;;0.40;;
8708;SDS011;4391;48.678;9.280;2023-12-20T03:43:46;0.60;;;0.30;;
8708;SDS011;4391;48.678;9.280;2023-12-20T03:46:12;1.08;;;0.38;;
8708;SDS011;4391;48.678;9.280;2023-12-20T03:48:41;1.10;;;0.45;;
8708;SDS011;4391;48.678;9.280;2023-12-20T03:51:07;1.83;;;0.40;;
8708;SDS011;4391;48.678;9.280;2023-12-20T03:53:34;1.00;;;0.45;;
8708;SDS011;4391;48.678;9.280;2023-12-20T03:56:01;2.90;;;0.40;;
8708;SDS011;4391;48.678;9.280;2023-12-20T03:58:28;1.40;;;0.30;;
8708;SDS011;4391;48.678;9.280;2023-12-20T04:00:55;2.00;;;0.50;;
8708;SDS011;4391;48.678;9.280;2023-12-20T04:03:24;1.00;;;0.32;;
8708;SDS011;4391;48.678;9.280;2023-12-20T04:05:52;1.05;;;0.40;;
8708;SDS011;4391;48.678;9.280;2023-12-20T04:08:19;0.93;;;0.40;;
8708;SDS011;4391;48.678;9.280;2023-12-20T04:10:46;1.33;;;0.40;;
8708;SDS011;4391;48.678;9.280;2023-12-20T04:13:16;1.63;;;0.43;;
8708;SDS011;4391;48.678;9.280;2023-12-20T04:15:43;1.30;;;0.43;;
8708;SDS011;4391;48.678;9.280;2023-12-20T04:18:10;3.45;;;0.40;;
8708;SDS011;4391;48.678;9.280;2023-12-20T04:20:37;1.10;;;0.40;;
8708;SDS011;4391;48.678;9.280;2023-12-20T04:23:05;0.65;;;0.20;;
8708;SDS011;4391;48.678;9.280;2023-12-20T04:25:32;2.45;;;0.40;;
8708;SDS011;4391;48.678;9.280;2023-12-20T04:27:58;0.60;;;0.20;;
8708;SDS011;4391;48.678;9.280;2023-12-20T04:30:25;2.42;;;0.40;;
8708;SDS011;4391;48.678;9.280;2023-12-20T04:32:52;0.70;;;0.30;;
8708;SDS011;4391;48.678;9.280;2023-12-20T04:35:19;1.65;;;0.30;;
8708;SDS011;4391;48.678;9.280;2023-12-20T04:37:46;1.00;;;0.40;;
8708;SDS011;4391;48.678;9.280;2023-12-20T04:40:15;1.17;;;0.50;;
8708;SDS011;4391;48.678;9.280;2023-12-20T04:42:43;1.00;;;0.40;;
8708;SDS011;4391;48.678;9.280;2023-12-20T04:45:09;0.77;;;0.30;;
8708;SDS011;4391;48.678;9.280;2023-12-20T04:47:38;0.50;;;0.30;;
8708;SDS011;4391;48.678;9.280;2023-12-20T04:50:05;0.82;;;0.40;;
8708;SDS011;4391;48.678;9.280;2023-12-20T04:52:33;1.05;;;0.40;;
8708;SDS011;4391;48.678;9.280;2023-12-20T04:55:00;0.65;;;0.30;;
8708;SDS011;4391;48.678;9.280;2023-12-20T04:57:28;0.80;;;0.20;;
8708;SDS011;4391;48.678;9.280;2023-12-20T04:59:55;0.82;;;0.40;;
8708;SDS011;4391;48.678;9.280;2023-12-20T05:02:22;0.60;;;0.30;;
8708;SDS011;4391;48.678;9.280;2023-12-20T05:04:48;0.80;;;0.30;;
8708;SDS011;4391;48.678;9.280;2023-12-20T05:07:15;1.63;;;0.60;;
8708;SDS011;4391;48.678;9.280;2023-12-20T05:09:42;0.63;;;0.30;;
8708;SDS011;4391;48.678;9.280;2023-12-20T05:12:09;4.72;;;0.43;;
8708;SDS011;4391;48.678;9.280;2023-12-20T05:14:37;1.13;;;0.50;;
8708;SDS011;4391;48.678;9.280;2023-12-20T05:17:04;0.68;;;0.40;;
8708;SDS011;4391;48.678;9.280;2023-12-20T05:19:31;1.92;;;0.60;;
8708;SDS011;4391;48.678;9.280;2023-12-20T05:22:00;4.00;;;0.70;;
8708;SDS011;4391;48.678;9.280;2023-12-20T05:24:26;1.27;;;0.43;;
8708;SDS011;4391;48.678;9.280;2023-12-20T05:26:53;1.52;;;0.50;;
8708;SDS011;4391;48.678;9.280;2023-12-20T05:29:20;3.03;;;0.50;;
8708;SDS011;4391;48.678;9.280;2023-12-20T05:31:49;1.40;;;0.50;;
8708;SDS011;4391;48.678;9.280;2023-12-20T05:34:15;1.67;;;0.57;;
8708;SDS011;4391;48.678;9.280;2023-12-20T05:36:42;1.83;;;0.60;;
8708;SDS011;4391;48.678;9.280;2023-12-20T05:39:09;4.03;;;1.00;;
8708;SDS011;4391;48.678;9.280;2023-12-20T05:41:36;2.88;;;0.90;;
8708;SDS011;4391;48.678;9.280;2023-12-20T05:44:03;1.98;;;0.70;;
8708;SDS011;4391;48.678;9.280;2023-12-20T05:46:30;1.17;;;0.50;;
8708;SDS011;4391;48.678;9.280;2023-12-20T05:48:58;1.08;;;0.50;;
8708;SDS011;4391;48.678;9.280;2023-12-20T05:51:25;1.20;;;0.50;;
8708;SDS011;4391;48.678;9.280;2023-12-20T05:53:51;0.82;;;0.30;;
8708;SDS011;4391;48.678;9.280;2023-12-20T05:56:18;1.13;;;0.47;;
8708;SDS011;4391;48.678;9.280;2023-12-20T05:58:45;1.00;;;0.30;;
8708;SDS011;4391;48.678;9.280;2023-12-20T06:01:13;1.25;;;0.45;;
8708;SDS011;4391;48.678;9.280;2023-12-20T06:03:42;1.25;;;0.50;;
8708;SDS011;4391;48.678;9.280;2023-12-20T06:06:10;1.45;;;0.47;;
8708;SDS011;4391;48.678;9.280;2023-12-20T06:08:37;1.45;;;0.52;;
8708;SDS011;4391;48.678;9.280;2023-12-20T06:11:04;2.20;;;0.60;;
8708;SDS011;4391;48.678;9.280;2023-12-20T06:13:31;1.60;;;0.43;;
8708;SDS011;4391;48.678;9.280;2023-12-20T06:15:58;3.35;;;1.35;;
8708;SDS011;4391;48.678;9.280;2023-12-20T06:18:25;2.85;;;0.77;;
8708;SDS011;4391;48.678;9.280;2023-12-20T06:20:52;1.58;;;0.57;;
8708;SDS011;4391;48.678;9.280;2023-12-20T06:23:20;1.57;;;0.50;;
8708;SDS011;4391;48.678;9.280;2023-12-20T06:25:47;1.38;;;0.40;;
8708;SDS011;4391;48.678;9.280;2023-12-20T06:28:14;3.88;;;0.63;;
8708;SDS011;4391;48.678;9.280;2023-12-20T06:30:40;2.03;;;0.60;;
8708;SDS011;4391;48.678;9.280;2023-12-20T06:33:07;1.75;;;0.70;;
8708;SDS011;4391;48.678;9.280;2023-12-20T06:35:35;1.07;;;0.40;;
8708;SDS011;4391;48.678;9.280;2023-12-20T06:38:02;2.28;;;0.40;;
8708;SDS011;4391;48.678;9.280;2023-12-20T06:40:31;1.00;;;0.40;;
8708;SDS011;4391;48.678;9.280;2023-12-20T06:42:57;2.30;;;0.47;;
8708;SDS011;4391;48.678;9.280;2023-12-20T06:45:25;2.22;;;0.73;;
8708;SDS011;4391;48.678;9.280;2023-12-20T06:47:52;1.67;;;0.50;;
8708;SDS011;4391;48.678;9.280;2023-12-20T06:50:20;1.33;;;0.40;;
8708;SDS011;4391;48.678;9.280;2023-12-20T06:52:46;2.45;;;0.80;;
8708;SDS011;4391;48.678;9.280;2023-12-20T06:55:12;1.77;;;0.52;;
8708;SDS011;4391;48.678;9.280;2023-12-20T06:57:41;2.60;;;0.68;;
8708;SDS011;4391;48.678;9.280;2023-12-20T07:00:08;2.57;;;0.60;;
8708;SDS011;4391;48.678;9.280;2023-12-20T07:02:37;3.25;;;0.50;;
8708;SDS011;4391;48.678;9.280;2023-12-20T07:05:04;2.83;;;0.60;;
8708;SDS011;4391;48.678;9.280;2023-12-20T07:07:31;1.52;;;0.60;;
8708;SDS011;4391;48.678;9.280;2023-12-20T07:09:58;1.65;;;0.50;;
8708;SDS011;4391;48.678;9.280;2023-12-20T07:12:25;1.27;;;0.30;;
8708;SDS011;4391;48.678;9.280;2023-12-20T07:14:53;1.00;;;0.30;;
8708;SDS011;4391;48.678;9.280;2023-12-20T07:17:21;1.10;;;0.40;;
8708;SDS011;4391;48.678;9.280;2023-12-20T07:19:48;1.27;;;0.40;;
8708;SDS011;4391;48.678;9.280;2023-12-20T07:22:15;5.05;;;0.40;;
8708;SDS011;4391;48.678;9.280;2023-12-20T07:24:41;1.03;;;0.37;;
8708;SDS011;4391;48.678;9.280;2023-12-20T07:27:08;2.85;;;0.52;;
8708;SDS011;4391;48.678;9.280;2023-12-20T07:29:35;0.80;;;0.32;;
8708;SDS011;4391;48.678;9.280;2023-12-20T07:32:04;0.98;;;0.38;;
8708;SDS011;4391;48.678;9.280;2023-12-20T07:34:31;0.65;;;0.30;;
8708;SDS011;4391;48.678;9.280;2023-12-20T07:36:58;1.90;;;0.50;;
8708;SDS011;4391;48.678;9.280;2023-12-20T07:39:25;0.85;;;0.40;;
8708;SDS011;4391;48.678;9.280;2023-12-20T07:41:52;2.05;;;0.60;;
8708;SDS011;4391;48.678;9.280;2023-12-20T07:44:19;1.00;;;0.30;;
8708;SDS011;4391;48.678;9.280;2023-12-20T07:46:46;1.85;;;0.40;;
8708;SDS011;4391;48.678;9.280;2023-12-20T07:49:15;0.70;;;0.37;;
8708;SDS011;4391;48.678;9.280;2023-12-20T07:51:42;1.75;;;0.50;;
8708;SDS011;4391;48.678;9.280;2023-12-20T07:54:09;1.40;;;0.60;;
8708;SDS011;4391;48.678;9.280;2023-12-20T07:56:35;1.63;;;0.60;;
8708;SDS011;4391;48.678;9.280;2023-12-20T07:59:02;2.03;;;0.60;;
8708;SDS011;4391;48.678;9.280;2023-12-20T08:01:29;2.70;;;0.80;;
8708;SDS011;4391;48.678;9.280;2023-12-20T08:03:56;3.38;;;0.90;;
8708;SDS011;4391;48.678;9.280;2023-12-20T08:06:24;3.40;;;0.63;;
8708;SDS011;4391;48.678;9.280;2023-12-20T08:08:51;2.15;;;0.65;;
8708;SDS011;4391;48.678;9.280;2023-12-20T08:11:18;2.65;;;0.75;;
8708;SDS011;4391;48.678;9.280;2023-12-20T08:13:45;6.10;;;1.10;;
8708;SDS011;4391;48.678;9.280;2023-12-20T08:16:12;4.25;;;1.50;;
8708;SDS011;4391;48.678;9.280;2023-12-20T08:18:43;4.25;;;1.75;;
8708;SDS011;4391;48.678;9.280;2023-12-20T08:21:09;4.50;;;1.67;;
8708;SDS011;4391;48.678;9.280;2023-12-20T08:23:40;7.75;;;2.05;;
8708;SDS011;4391;48.678;9.280;2023-12-20T08:26:07;7.83;;;2.33;;
8708;SDS011;4391;48.678;9.280;2023-12-20T08:28:34;5.00;;;1.80;;
8708;SDS011;4391;48.678;9.280;2023-12-20T08:31:01;3.95;;;1.52;;
8708;SDS011;4391;48.678;9.280;2023-12-20T08:33:28;5.40;;;2.10;;
8708;SDS011;4391;48.678;9.280;2023-12-20T08:35:55;4.95;;;2.40;;
8708;SDS011;4391;48.678;9.280;2023-12-20T08:38:22;6.40;;;2.27;;
8708;SDS011;4391;48.678;9.280;2023-12-20T08:40:50;5.53;;;2.67;;
8708;SDS011;4391;48.678;9.280;2023-12-20T08:43:17;5.47;;;2.25;;
8708;SDS011;4391;48.678;9.280;2023-12-20T08:45:44;5.30;;;2.40;;
8708;SDS011;4391;48.678;9.280;2023-12-20T08:48:11;6.60;;;2.85;;
8708;SDS011;4391;48.678;9.280;2023-12-20T08:50:38;6.27;;;2.50;;
8708;SDS011;4391;48.678;9.280;2023-12-20T08:53:05;8.88;;;2.80;;
8708;SDS011;4391;48.678;9.280;2023-12-20T08:55:32;12.40;;;2.80;;
8708;SDS011;4391;48.678;9.280;2023-12-20T08:58:00;5.82;;;2.30;;
8708;SDS011;4391;48.678;9.280;2023-12-20T09:00:27;6.47;;;3.00;;
8708;SDS011;4391;48.678;9.280;2023-12-20T09:02:54;5.90;;;2.60;;
8708;SDS011;4391;48.678;9.280;2023-12-20T09:05:21;8.35;;;2.72;;
8708;SDS011;4391;48.678;9.280;2023-12-20T09:07:48;7.70;;;2.70;;
8708;SDS011;4391;48.678;9.280;2023-12-20T09:10:15;6.78;;;2.78;;
8708;SDS011;4391;48.678;9.280;2023-12-20T09:12:47;6.20;;;3.30;;
8708;SDS011;4391;48.678;9.280;2023-12-20T09:15:15;8.83;;;3.10;;
8708;SDS011;4391;48.678;9.280;2023-12-20T09:17:42;7.18;;;3.38;;
8708;SDS011;4391;48.678;9.280;2023-12-20T09:20:09;6.97;;;2.70;;
8708;SDS011;4391;48.678;9.280;2023-12-20T09:22:38;7.55;;;2.42;;
8708;SDS011;4391;48.678;9.280;2023-12-20T09:25:07;5.53;;;2.30;;
8708;SDS011;4391;48.678;9.280;2023-12-20T09:27:34;4.53;;;2.03;;
8708;SDS011;4391;48.678;9.280;2023-12-20T09:30:01;4.63;;;1.65;;
8708;SDS011;4391;48.678;9.280;2023-12-20T09:32:30;6.25;;;1.90;;
8708;SDS011;4391;48.678;9.280;2023-12-20T09:34:57;4.22;;;1.90;;
8708;SDS011;4391;48.678;9.280;2023-12-20T09:37:26;5.35;;;1.17;;
8708;SDS011;4391;48.678;9.280;2023-12-20T09:39:53;5.07;;;1.20;;
8708;SDS011;4391;48.678;9.280;2023-12-20T09:42:21;4.53;;;1.30;;
8708;SDS011;4391;48.678;9.280;2023-12-20T09:44:54;3.90;;;1.42;;
8708;SDS011;4391;48.678;9.280;2023-12-20T09:47:23;5.25;;;1.40;;
8708;SDS011;4391;48.678;9.280;2023-12-20T09:49:52;5.30;;;1.50;;
8708;SDS011;4391;48.678;9.280;2023-12-20T09:52:20;7.00;;;1.60;;
8708;SDS011;4391;48.678;9.280;2023-12-20T09:54:50;6.18;;;1.50;;
8708;SDS011;4391;48.678;9.280;2023-12-20T09:57:20;4.70;;;1.40;;
8708;SDS011;4391;48.678;9.280;2023-12-20T09:59:47;6.32;;;1.40;;
8708;SDS011;4391;48.678;9.280;2023-12-20T10:02:14;5.22;;;1.38;;
8708;SDS011;4391;48.678;9.280;2023-12-20T10:04:45;5.37;;;1.30;;
8708;SDS011;4391;48.678;9.280;2023-12-20T10:07:15;5.43;;;1.40;;
8708;SDS011;4391;48.678;9.280;2023-12-20T10:09:42;5.28;;;1.23;;
8708;SDS011;4391;48.678;9.280;2023-12-20T10:12:10;5.55;;;0.98;;
8708;SDS011;4391;48.678;9.280;2023-12-20T10:14:38;6.05;;;1.08;;
8708;SDS011;4391;48.678;9.280;2023-12-20T10:17:05;4.13;;;1.13;;
8708;SDS011;4391;48.678;9.280;2023-12-20T10:19:33;5.35;;;0.88;;
8708;SDS011;4391;48.678;9.280;2023-12-20T10:22:00;8.27;;;1.40;;
8708;SDS011;4391;48.678;9.280;2023-12-20T10:24:29;5.95;;;0.90;;
8708;SDS011;4391;48.678;9.280;2023-12-20T10:27:02;4.50;;;1.00;;
8708;SDS011;4391;48.678;9.280;2023-12-20T10:29:33;4.63;;;0.90;;
8708;SDS011;4391;48.678;9.280;2023-12-20T10:32:02;4.55;;;0.90;;
8708;SDS011;4391;48.678;9.280;2023-12-20T10:34:48;3.17;;;1.05;;
8708;SDS011;4391;48.678;9.280;2023-12-20T10:37:16;4.35;;;1.05;;
8708;SDS011;4391;48.678;9.280;2023-12-20T10:39:44;4.43;;;1.05;;
8708;SDS011;4391;48.678;9.280;2023-12-20T10:42:15;3.47;;;0.80;;
8708;SDS011;4391;48.678;9.280;2023-12-20T10:44:43;5.13;;;1.10;;
8708;SDS011;4391;48.678;9.280;2023-12-20T10:47:10;3.50;;;0.80;;
8708;SDS011;4391;48.678;9.280;2023-12-20T10:49:39;3.25;;;0.65;;
8708;SDS011;4391;48.678;9.280;2023-12-20T10:52:07;4.22;;;1.00;;
8708;SDS011;4391;48.678;9.280;2023-12-20T10:54:37;4.40;;;1.03;;
8708;SDS011;4391;48.678;9.280;2023-12-20T10:57:06;4.07;;;0.80;;
8708;SDS011;4391;48.678;9.280;2023-12-20T10:59:33;5.13;;;1.10;;
8708;SDS011;4391;48.678;9.280;2023-12-20T11:02:03;4.28;;;0.82;;
8708;SDS011;4391;48.678;9.280;2023-12-20T11:04:35;4.43;;;0.98;;
8708;SDS011;4391;48.678;9.280;2023-12-20T11:07:08;3.80;;;1.20;;
8708;SDS011;4391;48.678;9.280;2023-12-20T11:09:47;4.95;;;0.95;;
8708;SDS011;4391;48.678;9.280;2023-12-20T11:12:24;5.30;;;0.93;;
8708;SDS011;4391;48.678;9.280;2023-12-20T11:15:01;4.15;;;1.05;;
8708;SDS011;4391;48.678;9.280;2023-12-20T11:17:29;5.72;;;1.33;;
8708;SDS011;4391;48.678;9.280;2023-12-20T11:20:05;5.10;;;1.20;;
8708;SDS011;4391;48.678;9.280;2023-12-20T11:22:35;4.63;;;0.93;;
8708;SDS011;4391;48.678;9.280;2023-12-20T11:25:04;3.88;;;1.30;;
8708;SDS011;4391;48.678;9.280;2023-12-20T11:27:34;4.65;;;1.13;;
8708;SDS011;4391;48.678;9.280;2023-12-20T11:30:02;5.63;;;1.30;;
8708;SDS011;4391;48.678;9.280;2023-12-20T11:32:33;7.73;;;1.43;;
8708;SDS011;4391;48.678;9.280;2023-12-20T11:35:01;4.30;;;1.27;;
8708;SDS011;4391;48.678;9.280;2023-12-20T11:37:44;3.85;;;1.00;;
8708;SDS011;4391;48.678;9.280;2023-12-20T11:40:14;4.32;;;1.13;;
8708;SDS011;4391;48.678;9.280;2023-12-20T11:42:43;6.15;;;1.15;;
8708;SDS011;4391;48.678;9.280;2023-12-20T11:45:11;5.03;;;0.93;;
8708;SDS011;4391;48.678;9.280;2023-12-20T11:47:41;6.00;;;0.80;;
8708;SDS011;4391;48.678;9.280;2023-12-20T11:50:09;5.53;;;1.40;;
8708;SDS011;4391;48.678;9.280;2023-12-20T11:52:36;5.63;;;1.10;;
8708;SDS011;4391;48.678;9.280;2023-12-20T11:55:03;4.63;;;0.90;;
8708;SDS011;4391;48.678;9.280;2023-12-20T11:57:31;8.23;;;1.03;;
8708;SDS011;4391;48.678;9.280;2023-12-20T11:59:59;6.90;;;0.90;;
8708;SDS011;4391;48.678;9.280;2023-12-20T12:02:26;7.32;;;1.30;;
8708;SDS011;4391;48.678;9.280;2023-12-20T12:04:53;5.35;;;1.02;;
8708;SDS011;4391;48.678;9.280;2023-12-20T12:07:22;2.53;;;1.10;;
8708;SDS011;4391;48.678;9.280;2023-12-20T12:09:49;4.80;;;1.10;;
8708;SDS011;4391;48.678;9.280;2023-12-20T12:12:16;6.78;;;1.40;;
8708;SDS011;4391;48.678;9.280;2023-12-20T12:14:44;8.32;;;1.40;;
8708;SDS011;4391;48.678;9.280;2023-12-20T12:17:13;3.38;;;1.00;;
8708;SDS011;4391;48.678;9.280;2023-12-20T12:19:40;5.45;;;1.20;;
8708;SDS011;4391;48.678;9.280;2023-12-20T12:22:08;5.43;;;1.57;;
8708;SDS011;4391;48.678;9.280;2023-12-20T12:24:38;3.67;;;0.93;;
8708;SDS011;4391;48.678;9.280;2023-12-20T12:27:05;3.25;;;0.93;;
8708;SDS011;4391;48.678;9.280;2023-12-20T12:29:32;4.53;;;1.38;;
8708;SDS011;4391;48.678;9.280;2023-12-20T12:31:59;3.95;;;0.95;;
8708;SDS011;4391;48.678;9.280;2023-12-20T12:34:28;3.83;;;0.80;;
8708;SDS011;4391;48.678;9.280;2023-12-20T12:36:55;5.13;;;1.00;;
8708;SDS011;4391;48.678;9.280;2023-12-20T12:39:22;5.38;;;0.85;;
8708;SDS011;4391;48.678;9.280;2023-12-20T12:41:50;6.93;;;1.58;;
8708;SDS011;4391;48.678;9.280;2023-12-20T12:44:17;5.93;;;1.10;;
8708;SDS011;4391;48.678;9.280;2023-12-20T12:46:44;6.33;;;1.47;;
8708;SDS011;4391;48.678;9.280;2023-12-20T12:49:12;7.05;;;1.10;;
8708;SDS011;4391;48.678;9.280;2023-12-20T12:51:42;3.65;;;1.10;;
8708;SDS011;4391;48.678;9.280;2023-12-20T12:54:09;5.95;;;1.00;;
8708;SDS011;4391;48.678;9.280;2023-12-20T12:56:38;4.43;;;1.00;;
8708;SDS011;4391;48.678;9.280;2023-12-20T12:59:05;4.77;;;0.93;;
8708;SDS011;4391;48.678;9.280;2023-12-20T13:01:32;5.90;;;1.25;;
8708;SDS011;4391;48.678;9.280;2023-12-20T13:03:59;6.25;;;1.27;;
8708;SDS011;4391;48.678;9.280;2023-12-20T13:06:28;5.95;;;0.90;;
8708;SDS011;4391;48.678;9.280;2023-12-20T13:08:56;4.90;;;0.90;;
8708;SDS011;4391;48.678;9.280;2023-12-20T13:11:23;6.23;;;1.13;;
8708;SDS011;4391;48.678;9.280;2023-12-20T13:13:50;4.45;;;1.15;;
8708;SDS011;4391;48.678;9.280;2023-12-20T13:16:17;3.22;;;1.15;;
8708;SDS011;4391;48.678;9.280;2023-12-20T13:18:44;5.28;;;1.10;;
8708;SDS011;4391;48.678;9.280;2023-12-20T13:21:11;6.88;;;1.27;;
8708;SDS011;4391;48.678;9.280;2023-12-20T13:23:38;6.83;;;0.90;;
8708;SDS011;4391;48.678;9.280;2023-12-20T13:26:08;6.90;;;1.15;;
8708;SDS011;4391;48.678;9.280;2023-12-20T13:28:34;6.35;;;1.08;;
8708;SDS011;4391;48.678;9.280;2023-12-20T13:31:01;7.45;;;1.70;;
8708;SDS011;4391;48.678;9.280;2023-12-20T13:33:29;13.35;;;3.55;;
8708;SDS011;4391;48.678;9.280;2023-12-20T13:35:55;10.33;;;3.10;;
8708;SDS011;4391;48.678;9.280;2023-12-20T13:38:23;9.02;;;1.52;;
8708;SDS011;4391;48.678;9.280;2023-12-20T13:40:50;5.68;;;1.48;;
8708;SDS011;4391;48.678;9.280;2023-12-20T13:43:18;4.05;;;1.00;;
8708;SDS011;4391;48.678;9.280;2023-12-20T13:45:46;8.35;;;1.63;;
8708;SDS011;4391;48.678;9.280;2023-12-20T13:48:14;8.60;;;1.30;;
8708;SDS011;4391;48.678;9.280;2023-12-20T13:50:40;8.23;;;1.55;;
8708;SDS011;4391;48.678;9.280;2023-12-20T13:53:07;8.27;;;1.60;;
8708;SDS011;4391;48.678;9.280;2023-12-20T13:55:34;7.88;;;1.38;;
8708;SDS011;4391;48.678;9.280;2023-12-20T13:58:01;7.13;;;1.20;;
8708;SDS011;4391;48.678;9.280;2023-12-20T14:00:29;5.57;;;1.10;;
8708;SDS011;4391;48.678;9.280;2023-12-20T14:02:56;11.98;;;1.00;;
8708;SDS011;4391;48.678;9.280;2023-12-20T14:05:23;5.93;;;1.00;;
8708;SDS011;4391;48.678;9.280;2023-12-20T14:07:51;2.70;;;0.70;;
8708;SDS011;4391;48.678;9.280;2023-12-20T14:10:18;5.72;;;0.80;;
8708;SDS011;4391;48.678;9.280;2023-12-20T14:12:45;3.83;;;0.97;;
8708;SDS011;4391;48.678;9.280;2023-12-20T14:15:12;4.93;;;0.77;;
8708;SDS011;4391;48.678;9.280;2023-12-20T14:17:41;5.10;;;0.85;;
8708;SDS011;4391;48.678;9.280;2023-12-20T14:20:08;5.40;;;0.80;;
8708;SDS011;4391;48.678;9.280;2023-12-20T14:22:37;7.85;;;1.52;;
8708;SDS011;4391;48.678;9.280;2023-12-20T14:25:10;4.90;;;0.80;;
8708;SDS011;4391;48.678;9.280;2023-12-20T14:27:37;3.25;;;0.70;;
8708;SDS011;4391;48.678;9.280;2023-12-20T14:30:04;7.78;;;0.82;;
8708;SDS011;4391;48.678;9.280;2023-12-20T14:32:34;4.40;;;1.20;;
8708;SDS011;4391;48.678;9.280;2023-12-20T14:35:03;5.63;;;1.20;;
8708;SDS011;4391;48.678;9.280;2023-12-20T14:37:31;4.93;;;0.90;;
8708;SDS011;4391;48.678;9.280;2023-12-20T14:39:58;4.60;;;0.90;;
8708;SDS011;4391;48.678;9.280;2023-12-20T14:42:25;4.32;;;0.82;;
8708;SDS011;4391;48.678;9.280;2023-12-20T14:44:52;5.00;;;1.52;;
8708;SDS011;4391;48.678;9.280;2023-12-20T14:47:19;3.60;;;0.80;;
8708;SDS011;4391;48.678;9.280;2023-12-20T14:49:46;3.47;;;0.80;;
8708;SDS011;4391;48.678;9.280;2023-12-20T14:52:15;3.38;;;1.10;;
8708;SDS011;4391;48.678;9.280;2023-12-20T14:54:44;5.45;;;0.98;;
8708;SDS011;4391;48.678;9.280;2023-12-20T14:57:11;4.47;;;0.93;;
8708;SDS011;4391;48.678;9.280;2023-12-20T14:59:38;2.28;;;0.90;;
8708;SDS011;4391;48.678;9.280;2023-12-20T15:02:05;5.20;;;1.03;;
8708;SDS011;4391;48.678;9.280;2023-12-20T15:04:32;3.17;;;0.90;;
8708;SDS011;4391;48.678;9.280;2023-12-20T15:06:59;5.90;;;1.33;;
8708;SDS011;4391;48.678;9.280;2023-12-20T15:09:28;4.25;;;0.88;;
8708;SDS011;4391;48.678;9.280;2023-12-20T15:11:55;3.25;;;0.90;;
8708;SDS011;4391;48.678;9.280;2023-12-20T15:14:21;2.80;;;0.73;;
8708;SDS011;4391;48.678;9.280;2023-12-20T15:16:48;8.98;;;1.48;;